Terminal Aerodrome Forecast
Issued by NWS

Home | Current Version | Previous Version | Text Only | Print | Product List | Glossary On
Versions: 1 2 3 4 5 6 7 8 9 10 11 12 13 14 15
000
FTPQ31 PGUM 290530
TAFGUM
TAF

TAF
PKWA 290530Z 2906/3006 04007KT P6SM VCSH SCT017 SCT035 BKN120
     FM291000 07007KT P6SM VCSH SCT015 BKN035
      TEMPO 2911/2915 3SM +SHRA OVC015=

USA.gov is the U.S. government's official web portal to all federal, state and local government web resources and services.